Nova Uniao, Brazil
Current Conditions -  °F | °C
As of 4:00 PM on Saturday 25 Oct 2014 (Local Time) from SBLS Reporting Station
Broken Clouds Broken Clouds  
Wind Chill: 86°   Ceiling: 8000
Heat Index: 86°   Visibility: 6mi
Dew Point: 50°   Wind: 5mph
Humidity: 29%   Direction: 240°WSW
Pressure: 29.94"   Gusts: NA
Location:  19.69°S, 43.58°W
Report Text: SBLS 251800Z 24004KT 9999 SCT037 BKN080 30/10 Q1014
Loading
Personal Weather Stations






























Interactive Weather Map
Tropical Storm Tracking
New forecast layout! Learn more

10-Day Weather Forecast

Advertisements
Track Severe Weather on mobile